Time;durP1;ratioP1;P1;durP2;ratioP2;P2;SDS_P1;SDS_P2;PMS_P1;PMS_P2;Temp;Humidity;BMP_temperature;BMP_pressure;BME280_temperature;BME280_humidity;BME280_pressure;Samples;Min_cycle;Max_cycle;Signal;HPM_P1;HPM_P2
2022/01/27 00:05:46;;;;;;;14.83;6.77;;;;;;;-0.88;80.32;96225.83;1818659;79;21026;-85
2022/01/27 00:08:13;;;;;;;11.57;6.60;;;;;;;-0.87;80.29;96232.76;1818230;79;21062;-85
2022/01/27 00:11:00;;;;;;;15.70;7.40;;;;;;;-0.87;80.17;96231.05;1818555;79;21022;-85
2022/01/27 00:13:30;;;;;;;13.27;6.30;;;;;;;-0.85;80.24;96238.01;1818831;79;21449;-85
2022/01/27 00:16:10;;;;;;;16.93;9.37;;;;;;;-0.87;80.17;96224.56;1818877;79;21511;-77
2022/01/27 00:18:29;;;;;;;16.10;7.70;;;;;;;-0.84;80.16;96225.52;1816828;79;21018;-85
2022/01/27 00:20:56;;;;;;;12.57;7.50;;;;;;;-0.83;80.25;96225.58;1819090;79;21484;-86
2022/01/27 00:23:22;;;;;;;14.00;7.80;;;;;;;-0.82;80.37;96219.55;1818925;79;21014;-86
2022/01/27 00:25:49;;;;;;;14.77;7.60;;;;;;;-0.78;80.18;96220.53;1819135;79;21001;-85
2022/01/27 00:28:15;;;;;;;11.10;6.07;;;;;;;-0.74;80.03;96218.11;1818949;79;21033;-86
2022/01/27 00:30:42;;;;;;;13.77;7.03;;;;;;;-0.74;79.85;96215.94;1818943;79;21018;-86
2022/01/27 00:33:08;;;;;;;15.23;8.13;;;;;;;-0.73;79.74;96220.27;1818890;79;21483;-86
2022/01/27 00:35:35;;;;;;;9.23;4.97;;;;;;;-0.72;79.75;96209.98;1819056;79;20998;-86
2022/01/27 00:38:03;;;;;;;12.90;6.20;;;;;;;-0.71;79.62;96207.84;1818946;79;21025;-86
2022/01/27 00:40:30;;;;;;;10.40;5.27;;;;;;;-0.73;79.69;96210.81;1818821;79;21038;-86
2022/01/27 00:42:57;;;;;;;13.17;6.87;;;;;;;-0.73;79.64;96209.91;1818974;79;21013;-86
2022/01/27 00:45:25;;;;;;;14.73;7.43;;;;;;;-0.74;79.67;96221.12;1818927;79;21480;-86
2022/01/27 00:47:52;;;;;;;13.27;6.60;;;;;;;-0.78;79.71;96214.96;1818836;79;21021;-86
2022/01/27 00:50:19;;;;;;;11.90;6.03;;;;;;;-0.76;79.62;96212.40;1819034;79;20997;-86
2022/01/27 00:52:51;;;;;;;12.87;6.90;;;;;;;-0.74;79.64;96215.52;1818904;79;21014;-85
2022/01/27 00:55:15;;;;;;;11.47;5.67;;;;;;;-0.74;79.61;96218.11;1818102;79;21050;-86
2022/01/27 01:00:34;;;;;;;13.53;6.93;;;;;;;-0.73;79.51;96222.87;1818763;79;20971;-85
2022/01/27 01:03:05;;;;;;;10.87;6.10;;;;;;;-0.74;79.60;96221.12;1818026;79;20967;-86
2022/01/27 01:07:58;;;;;;;11.03;5.23;;;;;;;-0.76;79.56;96232.70;1818501;79;21006;-86
2022/01/27 01:15:47;;;;;;;12.10;6.70;;;;;;;-0.71;79.37;96221.22;1754756;81;21045;-85
2022/01/27 01:21:50;;;;;;;11.63;6.00;;;;;;;-0.64;78.72;96228.80;1818807;79;21020;-85
2022/01/27 01:31:53;;;;;;;14.37;7.53;;;;;;;-0.61;78.39;96224.59;1818530;79;21404;-85
2022/01/27 01:34:19;;;;;;;14.10;7.73;;;;;;;-0.57;78.40;96236.84;1816629;79;21046;-85
2022/01/27 01:36:54;;;;;;;15.00;7.63;;;;;;;-0.57;78.42;96230.36;1818241;79;21003;-85
2022/01/27 01:39:14;;;;;;;15.37;8.00;;;;;;;-0.55;78.30;96229.13;1817273;79;21022;-85
2022/01/27 01:41:42;;;;;;;18.40;8.67;;;;;;;-0.56;78.24;96233.83;1818617;79;21464;-85
2022/01/27 01:44:09;;;;;;;18.53;9.47;;;;;;;-0.52;78.25;96234.41;1818624;79;20980;-85
2022/01/27 01:46:36;;;;;;;13.33;6.83;;;;;;;-0.52;78.41;96237.00;1818750;79;20994;-85
2022/01/27 01:49:04;;;;;;;14.97;7.73;;;;;;;-0.52;78.39;96244.36;1818434;79;21018;-86
2022/01/27 01:51:32;;;;;;;12.33;6.43;;;;;;;-0.51;78.43;96238.33;1818646;79;21027;-85
2022/01/27 01:54:00;;;;;;;13.07;6.43;;;;;;;-0.53;78.64;96242.61;1818533;79;21003;-85
2022/01/27 01:56:26;;;;;;;13.10;7.27;;;;;;;-0.56;78.90;96233.83;1818511;79;21002;-85
2022/01/27 01:58:54;;;;;;;14.23;7.57;;;;;;;-0.58;79.08;96236.77;1818677;79;21548;-85
2022/01/27 02:01:21;;;;;;;14.70;7.47;;;;;;;-0.56;79.15;96234.70;1818611;79;21033;-85
2022/01/27 02:03:48;;;;;;;15.63;7.27;;;;;;;-0.56;79.40;96224.75;1818452;79;21034;-86
2022/01/27 02:06:33;;;;;;;17.67;7.83;;;;;;;-0.58;79.84;96229.91;1818595;79;21513;-86
2022/01/27 02:09:25;;;;;;;13.43;7.63;;;;;;;-0.56;79.64;96229.52;1817761;79;21476;-86
2022/01/27 02:19:39;;;;;;;16.60;7.53;;;;;;;-0.59;80.15;96231.13;1818810;79;20954;-85
2022/01/27 02:22:06;;;;;;;15.33;7.97;;;;;;;-0.60;80.20;96230.68;1818686;79;20995;-85
2022/01/27 02:24:36;;;;;;;14.43;7.27;;;;;;;-0.60;80.46;96230.26;1818635;79;21002;-84
2022/01/27 02:27:04;;;;;;;14.13;7.17;;;;;;;-0.58;80.45;96223.81;1818596;79;21504;-85
2022/01/27 02:29:31;;;;;;;13.57;6.93;;;;;;;-0.57;80.53;96232.08;1818623;79;20990;-85
2022/01/27 02:31:59;;;;;;;16.33;7.43;;;;;;;-0.57;80.58;96222.58;1818407;79;20997;-85
2022/01/27 02:34:27;;;;;;;12.27;7.20;;;;;;;-0.56;80.48;96231.23;1818620;79;20990;-85
2022/01/27 02:36:54;;;;;;;15.67;8.93;;;;;;;-0.58;80.46;96228.61;1818683;79;21006;-85
2022/01/27 02:39:22;;;;;;;12.57;7.27;;;;;;;-0.54;80.48;96226.98;1818481;79;21023;-85
2022/01/27 02:41:54;;;;;;;17.97;8.60;;;;;;;-0.54;80.40;96226.98;1818565;79;21001;-85
2022/01/27 02:44:48;;;;;;;14.90;7.90;;;;;;;-0.55;80.44;96219.63;1816578;79;21006;-85
2022/01/27 02:47:16;;;;;;;13.43;7.33;;;;;;;-0.52;80.30;96219.73;1817052;79;21595;-85
2022/01/27 02:49:44;;;;;;;13.63;7.77;;;;;;;-0.51;80.32;96215.00;1818599;79;21492;-84
2022/01/27 02:52:11;;;;;;;15.13;7.30;;;;;;;-0.49;80.23;96211.17;1818485;79;21010;-84
2022/01/27 02:54:38;;;;;;;15.33;7.40;;;;;;;-0.53;80.18;96205.02;1818681;79;20998;-85
2022/01/27 02:57:06;;;;;;;18.80;8.77;;;;;;;-0.52;80.26;96198.99;1818715;79;21040;-85
2022/01/27 02:59:32;;;;;;;15.07;8.33;;;;;;;-0.53;80.28;96203.72;1818633;79;21034;-85
2022/01/27 03:01:59;;;;;;;14.97;7.73;;;;;;;-0.54;80.33;96199.34;1818912;79;20990;-82
2022/01/27 03:04:27;;;;;;;14.30;8.13;;;;;;;-0.53;80.29;96212.80;1818718;79;21070;-85
2022/01/27 03:06:54;;;;;;;15.03;8.17;;;;;;;-0.57;80.45;96203.14;1818884;79;21441;-85
2022/01/27 03:09:20;;;;;;;15.23;8.07;;;;;;;-0.52;80.36;96203.30;1818960;79;21463;-85
2022/01/27 03:11:54;;;;;;;14.53;7.33;;;;;;;-0.51;80.23;96206.34;1818728;79;21054;-85
2022/01/27 03:14:24;;;;;;;15.37;8.60;;;;;;;-0.48;80.10;96208.65;1817030;79;21069;-85
2022/01/27 03:16:55;;;;;;;14.97;8.13;;;;;;;-0.49;79.93;96201.68;1818754;79;20986;-85
2022/01/27 03:19:22;;;;;;;15.27;7.70;;;;;;;-0.50;79.98;96191.28;1818634;79;21053;-85
2022/01/27 03:21:49;;;;;;;15.77;8.13;;;;;;;-0.47;80.09;96190.95;1818733;79;21049;-85
2022/01/27 03:24:17;;;;;;;14.53;7.73;;;;;;;-0.45;79.95;96180.65;1818707;79;21042;-85
2022/01/27 03:26:45;;;;;;;15.17;7.57;;;;;;;-0.51;79.96;96174.82;1819360;79;21018;-85
2022/01/27 03:29:12;;;;;;;14.90;7.60;;;;;;;-0.50;79.87;96173.13;1818771;79;21044;-85
2022/01/27 03:31:38;;;;;;;14.63;7.90;;;;;;;-0.48;79.93;96162.38;1818767;79;21033;-85
2022/01/27 03:34:05;;;;;;;12.57;6.00;;;;;;;-0.47;79.75;96162.44;1818708;79;20999;-85
2022/01/27 03:36:32;;;;;;;17.13;8.53;;;;;;;-0.52;79.36;96164.00;1818895;79;20991;-85
2022/01/27 03:38:58;;;;;;;11.33;6.50;;;;;;;-0.52;79.41;96167.89;1818788;79;21046;-85
2022/01/27 03:41:31;;;;;;;14.40;7.20;;;;;;;-0.52;79.21;96167.89;1818732;79;20990;-84
2022/01/27 03:43:53;;;;;;;11.87;6.10;;;;;;;-0.49;78.92;96172.30;1817911;79;21041;-85
2022/01/27 03:46:20;;;;;;;12.77;7.13;;;;;;;-0.48;79.01;96174.95;1819031;79;20974;-85
2022/01/27 03:48:46;;;;;;;14.37;7.23;;;;;;;-0.50;79.13;96178.32;1818701;79;21019;-85
2022/01/27 03:51:13;;;;;;;11.80;6.40;;;;;;;-0.52;79.02;96166.59;1818924;79;21108;-85
2022/01/27 03:53:40;;;;;;;13.20;6.73;;;;;;;-0.51;78.89;96155.38;1818595;79;21062;-84
2022/01/27 03:56:07;;;;;;;12.77;6.30;;;;;;;-0.48;78.96;96148.12;1818759;79;21476;-85
2022/01/27 03:58:34;;;;;;;9.43;5.57;;;;;;;-0.50;78.88;96151.10;1818673;79;21101;-84
2022/01/27 04:01:04;;;;;;;7.57;4.63;;;;;;;-0.48;78.73;96144.23;1818680;79;21006;-84
2022/01/27 04:03:33;;;;;;;10.10;5.70;;;;;;;-0.47;78.40;96144.30;1818584;79;20987;-84
2022/01/27 04:06:10;;;;;;;6.27;3.70;;;;;;;-0.45;78.58;96132.27;1818689;79;21045;-85
2022/01/27 04:08:37;;;;;;;8.97;5.17;;;;;;;-0.45;77.36;96144.36;1817872;79;21022;-85
2022/01/27 04:11:09;;;;;;;9.40;5.00;;;;;;;-0.41;77.26;96146.62;1818647;79;20979;-85
2022/01/27 04:13:37;;;;;;;7.43;4.20;;;;;;;-0.39;77.33;96148.85;1818599;79;21010;-82
2022/01/27 04:16:05;;;;;;;8.77;4.40;;;;;;;-0.42;77.37;96151.35;1818834;79;20994;-85
2022/01/27 04:18:32;;;;;;;10.37;5.70;;;;;;;-0.46;77.33;96142.58;1818540;79;21010;-84
2022/01/27 04:20:59;;;;;;;7.60;4.50;;;;;;;-0.41;77.18;96145.32;1818823;79;20987;-74
2022/01/27 04:23:26;;;;;;;10.97;6.00;;;;;;;-0.42;77.35;96142.28;1818584;79;21010;-76
2022/01/27 04:25:53;;;;;;;8.33;5.03;;;;;;;-0.45;77.49;96146.95;1791529;79;21496;-78
2022/01/27 04:28:26;;;;;;;12.00;6.20;;;;;;;-0.43;77.44;96160.81;1818683;79;20999;-73
2022/01/27 04:30:48;;;;;;;12.87;7.40;;;;;;;-0.43;77.65;96158.22;1817861;79;21025;-74
2022/01/27 04:33:17;;;;;;;16.10;10.70;;;;;;;-0.53;78.25;96167.44;1818655;79;21473;-74
2022/01/27 04:35:47;;;;;;;10.03;5.67;;;;;;;-0.55;77.95;96171.69;1818800;79;21444;-73
2022/01/27 04:40:56;;;;;;;12.90;6.23;;;;;;;-0.48;77.80;96168.47;1818752;79;21014;-74
2022/01/27 04:43:57;;;;;;;13.70;6.23;;;;;;;-0.53;78.25;96181.69;1817194;79;21015;-73
2022/01/27 04:46:36;;;;;;;11.97;6.03;;;;;;;-0.53;78.24;96171.33;1807611;79;21469;-73
2022/01/27 04:48:20;;;;;;;8.60;4.50;;;;;;;-0.51;78.28;96171.35;1799446;79;21051;-73
2022/01/27 04:50:46;;;;;;;6.87;3.47;;;;;;;-0.47;77.84;96164.16;1818740;79;20967;-73
2022/01/27 04:53:28;;;;;;;11.83;6.87;;;;;;;-0.44;76.94;96164.25;1818534;79;21017;-74
2022/01/27 04:55:48;;;;;;;13.57;10.17;;;;;;;-0.41;76.85;96179.02;1812189;79;21094;-73
2022/01/27 04:58:24;;;;;;;8.53;4.27;;;;;;;-0.38;76.68;96189.48;1812897;79;21540;-73
2022/01/27 05:00:45;;;;;;;12.60;8.37;;;;;;;-0.34;76.84;96188.77;1811758;79;21015;-73
2022/01/27 05:03:22;;;;;;;8.97;4.67;;;;;;;-0.34;76.78;96185.75;1812878;79;20990;-74
2022/01/27 05:05:41;;;;;;;7.80;3.93;;;;;;;-0.31;76.53;96183.67;1811305;79;21015;-74
2022/01/27 05:08:15;;;;;;;6.90;3.97;;;;;;;-0.29;76.36;96182.89;1813029;79;20987;-74
2022/01/27 05:10:36;;;;;;;7.50;4.33;;;;;;;-0.29;76.36;96187.21;1811841;79;21035;-73
2022/01/27 05:13:12;;;;;;;8.33;5.60;;;;;;;-0.30;76.16;96179.85;1813002;79;21021;-74
2022/01/27 05:15:42;;;;;;;6.47;2.47;;;;;;;-0.31;76.40;96172.88;1812056;79;21079;-74
2022/01/27 05:18:03;;;;;;;8.43;4.60;;;;;;;-0.28;75.72;96166.91;1811633;79;21017;-75
2022/01/27 05:20:29;;;;;;;9.30;4.83;;;;;;;-0.22;75.91;96164.54;1813024;79;21558;-74
2022/01/27 05:22:56;;;;;;;9.80;5.07;;;;;;;-0.18;75.83;96165.50;1813137;79;20947;-73
2022/01/27 05:25:22;;;;;;;7.40;4.10;;;;;;;-0.23;75.50;96166.26;1813085;79;20964;-73
2022/01/27 05:27:49;;;;;;;9.17;4.97;;;;;;;-0.23;75.46;96149.79;1812980;79;21030;-73
2022/01/27 05:30:16;;;;;;;10.03;5.23;;;;;;;-0.18;75.48;96144.75;1812672;79;20983;-73
2022/01/27 05:32:42;;;;;;;8.90;5.17;;;;;;;-0.19;75.34;96133.93;1813052;79;20983;-74
2022/01/27 05:35:09;;;;;;;9.17;5.20;;;;;;;-0.21;75.71;96129.98;1812747;79;21038;-74
2022/01/27 05:37:35;;;;;;;13.23;5.80;;;;;;;-0.23;74.85;96122.56;1812945;79;20955;-74
2022/01/27 05:40:02;;;;;;;13.67;6.47;;;;;;;-0.22;74.93;96127.80;1813104;79;20971;-74
2022/01/27 05:42:29;;;;;;;8.90;4.93;;;;;;;-0.24;74.92;96129.47;1812884;79;21025;-74
2022/01/27 05:44:56;;;;;;;9.23;5.20;;;;;;;-0.20;74.78;96144.73;1812992;79;21045;-74
2022/01/27 05:47:22;;;;;;;7.30;4.20;;;;;;;-0.22;74.64;96149.85;1813148;79;20987;-74
2022/01/27 05:49:49;;;;;;;7.63;4.57;;;;;;;-0.22;74.58;96150.27;1812736;79;20994;-74
2022/01/27 05:52:16;;;;;;;8.27;4.47;;;;;;;-0.20;74.54;96156.78;1813006;79;20983;-74
2022/01/27 05:54:42;;;;;;;6.23;3.67;;;;;;;-0.18;74.64;96171.56;1814835;79;21496;-74
2022/01/27 05:57:09;;;;;;;7.43;3.97;;;;;;;-0.19;74.49;96165.92;1818718;79;20995;-73
2022/01/27 05:59:35;;;;;;;9.30;5.60;;;;;;;-0.22;74.47;96160.23;1818536;79;21089;-74
2022/01/27 06:02:02;;;;;;;9.33;5.37;;;;;;;-0.17;74.53;96159.08;1818591;79;21049;-74
2022/01/27 06:04:29;;;;;;;8.70;4.50;;;;;;;-0.15;74.84;96149.64;1818467;79;20967;-73
2022/01/27 06:06:55;;;;;;;8.73;5.40;;;;;;;-0.11;74.76;96161.85;1817180;79;21042;-71
2022/01/27 06:09:22;;;;;;;9.13;4.50;;;;;;;-0.11;74.57;96150.60;1817223;79;21602;-74
2022/01/27 06:11:48;;;;;;;9.60;5.50;;;;;;;-0.15;74.13;96144.45;1816491;79;21065;-74
2022/01/27 06:14:15;;;;;;;5.97;3.60;;;;;;;-0.14;74.19;96148.80;1817269;79;20963;-73
2022/01/27 06:16:44;;;;;;;9.23;4.40;;;;;;;-0.19;73.94;96160.73;1816571;79;21053;-73
2022/01/27 06:19:09;;;;;;;8.40;4.77;;;;;;;-0.16;73.96;96160.83;1817502;79;21129;-72
2022/01/27 06:21:36;;;;;;;9.37;5.63;;;;;;;-0.15;73.89;96158.72;1818133;79;21473;-74
2022/01/27 06:24:05;;;;;;;8.80;4.30;;;;;;;-0.12;74.12;96164.00;1817338;79;21052;-79
2022/01/27 06:26:31;;;;;;;6.63;4.33;;;;;;;-0.14;74.03;96158.30;1817695;79;21388;-78
2022/01/27 06:28:58;;;;;;;6.67;4.17;;;;;;;-0.13;73.96;96144.48;1817481;79;21476;-73
2022/01/27 06:31:24;;;;;;;8.90;4.53;;;;;;;-0.13;73.49;96147.95;1817088;79;21043;-78
2022/01/27 06:33:54;;;;;;;5.77;3.37;;;;;;;-0.11;73.44;96150.60;1818015;79;21571;-78
2022/01/27 06:36:20;;;;;;;8.53;3.87;;;;;;;-0.16;73.15;96149.16;1818322;79;20986;-81
2022/01/27 06:38:48;;;;;;;6.17;3.83;;;;;;;-0.15;73.00;96135.77;1817960;79;21053;-80
2022/01/27 06:41:14;;;;;;;4.37;2.50;;;;;;;-0.10;72.56;96133.80;1818596;79;21055;-82
2022/01/27 06:43:41;;;;;;;13.67;10.00;;;;;;;-0.08;71.34;96129.94;1817910;79;21005;-79
2022/01/27 06:46:08;;;;;;;10.70;5.60;;;;;;;-0.08;71.67;96126.92;1763929;80;21033;-75
2022/01/27 06:48:34;;;;;;;10.33;5.87;;;;;;;-0.07;71.95;96137.78;1754984;82;20999;-81
2022/01/27 06:51:04;;;;;;;6.07;4.00;;;;;;;-0.09;71.16;96134.25;1755106;82;21114;-76
2022/01/27 06:53:30;;;;;;;9.20;5.07;;;;;;;-0.10;71.00;96135.10;1755766;82;21035;-79
2022/01/27 06:55:57;;;;;;;12.23;7.67;;;;;;;-0.07;71.33;96141.67;1755559;81;21070;-75
2022/01/27 06:58:24;;;;;;;9.20;5.07;;;;;;;-0.03;71.26;96145.23;1763821;81;20987;-75
2022/01/27 07:00:50;;;;;;;15.80;10.50;;;;;;;0.03;71.37;96147.16;1755590;82;21495;-77
2022/01/27 07:03:17;;;;;;;12.63;7.20;;;;;;;0.05;71.30;96151.95;1754495;82;21109;-77
2022/01/27 07:05:43;;;;;;;9.23;5.40;;;;;;;0.04;71.30;96139.41;1762296;81;21559;-76
2022/01/27 07:08:10;;;;;;;8.07;4.17;;;;;;;0.06;70.96;96137.73;1754072;82;21066;-77
2022/01/27 07:10:36;;;;;;;9.73;5.10;;;;;;;0.09;70.73;96143.44;1762996;81;21037;-79
2022/01/27 07:13:04;;;;;;;8.97;4.30;;;;;;;0.07;70.81;96136.02;1754765;82;20998;-80
2022/01/27 07:15:31;;;;;;;17.33;8.40;;;;;;;0.04;71.09;96138.53;1763656;81;21003;-79
2022/01/27 07:17:57;;;;;;;10.40;6.13;;;;;;;0.03;71.21;96132.47;1755705;82;21027;-80
2022/01/27 07:20:24;;;;;;;17.30;9.23;;;;;;;0.06;71.34;96132.55;1763820;81;21035;-77
2022/01/27 07:22:50;;;;;;;13.67;7.03;;;;;;;0.06;70.94;96126.06;1764169;81;21053;-77
2022/01/27 07:25:17;;;;;;;12.47;6.90;;;;;;;0.10;70.74;96134.41;1764173;81;21018;-77
2022/01/27 07:27:44;;;;;;;9.97;6.10;;;;;;;0.16;70.69;96138.91;1755487;82;21049;-76
2022/01/27 07:30:11;;;;;;;9.97;6.07;;;;;;;0.11;70.54;96131.40;1758987;81;21058;-81
2022/01/27 07:32:38;;;;;;;12.60;6.90;;;;;;;0.07;70.45;96137.31;1745100;82;21094;-76
2022/01/27 07:35:05;;;;;;;10.57;5.87;;;;;;;0.10;70.25;96141.30;1745063;82;21078;-76
2022/01/27 07:37:32;;;;;;;9.33;4.87;;;;;;;0.17;70.18;96136.33;1744983;82;21667;-77
2022/01/27 07:39:59;;;;;;;5.90;3.33;;;;;;;0.16;70.16;96140.20;1745045;82;21003;-77
2022/01/27 07:42:25;;;;;;;5.63;3.03;;;;;;;0.21;69.79;96138.20;1745218;82;21509;-77
2022/01/27 07:44:51;;;;;;;6.23;3.37;;;;;;;0.29;69.23;96125.45;1745389;82;21063;-78
2022/01/27 07:47:18;;;;;;;6.87;3.87;;;;;;;0.38;69.32;96124.43;1745339;82;20983;-75
2022/01/27 07:49:45;;;;;;;9.50;5.30;;;;;;;0.58;69.74;96122.41;1745113;82;21023;-75
2022/01/27 07:52:12;;;;;;;8.37;4.30;;;;;;;0.70;69.27;96119.67;1745443;82;21076;-77
2022/01/27 07:54:39;;;;;;;8.47;5.10;;;;;;;0.86;69.36;96117.97;1745473;81;21039;-76
2022/01/27 07:57:05;;;;;;;8.77;5.30;;;;;;;1.00;69.40;96117.03;1746251;82;21491;-74
2022/01/27 07:59:32;;;;;;;5.73;3.67;;;;;;;1.18;68.18;96119.23;1796592;80;21039;-73
2022/01/27 08:01:59;;;;;;;6.23;4.10;;;;;;;1.23;67.04;96107.23;1796403;80;21070;-75
2022/01/27 08:04:26;;;;;;;11.30;7.63;;;;;;;1.29;66.85;96100.91;1796719;80;20983;-75
2022/01/27 08:06:52;;;;;;;15.10;10.63;;;;;;;1.36;67.09;96111.02;1796851;80;21020;-73
2022/01/27 08:09:19;;;;;;;13.03;8.77;;;;;;;1.43;67.28;96109.03;1796497;80;21015;-78
2022/01/27 08:11:45;;;;;;;12.20;8.67;;;;;;;1.53;67.13;96107.11;1796836;80;21449;-76
2022/01/27 08:14:12;;;;;;;12.73;6.57;;;;;;;1.61;67.05;96104.70;1796703;80;21007;-76
2022/01/27 08:16:39;;;;;;;9.67;6.17;;;;;;;1.65;66.34;96109.14;1796605;80;20964;-75
2022/01/27 08:19:05;;;;;;;8.17;5.23;;;;;;;1.66;65.95;96111.80;1796204;80;21020;-87
2022/01/27 08:21:31;;;;;;;8.50;5.37;;;;;;;1.77;65.87;96104.66;1796816;80;21612;-74
2022/01/27 08:23:59;;;;;;;5.67;4.03;;;;;;;1.88;66.01;96104.05;1796465;80;20976;-75
2022/01/27 08:26:34;;;;;;;6.70;4.13;;;;;;;1.98;65.16;96101.66;1796831;80;21588;-78
2022/01/27 08:29:08;;;;;;;7.83;4.50;;;;;;;2.10;64.69;96104.12;1795270;80;21087;-82
2022/01/27 08:31:32;;;;;;;9.33;5.73;;;;;;;2.08;64.22;96101.02;1794634;80;21504;-78
2022/01/27 08:33:51;;;;;;;8.80;4.37;;;;;;;2.24;64.22;96101.80;1795086;80;21067;-76
2022/01/27 08:36:22;;;;;;;8.73;5.80;;;;;;;2.38;63.77;96103.41;1796567;80;21027;-74
2022/01/27 08:38:46;;;;;;;8.00;4.90;;;;;;;2.50;63.47;96106.70;1795908;79;20980;-75
2022/01/27 08:41:12;;;;;;;6.80;3.43;;;;;;;2.63;62.73;96115.22;1796880;80;20996;-77
2022/01/27 08:43:38;;;;;;;11.10;5.87;;;;;;;2.74;61.20;96118.03;1796687;80;21507;-79
2022/01/27 08:46:05;;;;;;;12.43;8.20;;;;;;;3.00;62.74;96124.65;1770741;80;21004;-75
2022/01/27 08:48:33;;;;;;;7.77;4.20;;;;;;;3.30;62.30;96118.66;1797190;80;21043;-74
2022/01/27 08:51:01;;;;;;;6.27;3.17;;;;;;;3.58;60.30;96109.56;1796982;80;20983;-79
2022/01/27 08:53:30;;;;;;;9.03;4.77;;;;;;;3.91;58.47;96113.17;1797174;80;21007;-74
2022/01/27 08:55:57;;;;;;;9.13;5.87;;;;;;;4.41;58.46;96109.51;1792152;80;21489;-72
2022/01/27 08:58:25;;;;;;;8.33;5.50;;;;;;;4.70;57.43;96105.98;1799179;80;21023;-75
2022/01/27 09:00:52;;;;;;;8.70;5.03;;;;;;;4.93;56.49;96113.66;1799217;80;21011;-73
2022/01/27 09:03:20;;;;;;;10.70;6.40;;;;;;;4.72;56.04;96124.74;1798910;80;21485;-76
2022/01/27 09:05:46;;;;;;;9.13;5.73;;;;;;;4.40;57.53;96131.28;1798928;80;21027;-79
2022/01/27 09:08:13;;;;;;;8.33;5.20;;;;;;;4.17;57.98;96130.52;1799012;80;21039;-77
2022/01/27 09:10:41;;;;;;;8.40;5.00;;;;;;;4.08;58.66;96118.62;1799155;80;21403;-83
2022/01/27 09:13:08;;;;;;;8.63;5.93;;;;;;;3.95;58.87;96121.91;1798981;80;21015;-77
2022/01/27 09:15:35;;;;;;;7.53;4.87;;;;;;;3.80;59.26;96126.46;1799045;80;21019;-74
2022/01/27 09:18:01;;;;;;;8.50;5.47;;;;;;;3.55;59.31;96140.40;1799258;78;21012;-75
2022/01/27 09:20:28;;;;;;;8.97;6.20;;;;;;;3.47;59.58;96137.66;1804832;78;20998;-75
2022/01/27 09:22:57;;;;;;;10.23;6.00;;;;;;;3.33;60.46;96140.91;1805279;78;20959;-76
2022/01/27 09:25:30;;;;;;;13.53;9.07;;;;;;;3.32;60.81;96136.08;1796471;79;21634;-76
2022/01/27 09:27:52;;;;;;;9.03;5.40;;;;;;;3.25;61.09;96131.20;1802858;78;20967;-75
2022/01/27 09:30:19;;;;;;;36.30;19.10;;;;;;;3.25;60.60;96136.42;1796813;79;20999;-75
2022/01/27 09:32:47;;;;;;;40.30;21.77;;;;;;;3.16;61.29;96132.76;1798148;77;20951;-77
2022/01/27 09:35:16;;;;;;;39.20;22.70;;;;;;;3.00;61.70;96144.20;1831626;77;21047;-76
2022/01/27 09:37:43;;;;;;;43.67;23.50;;;;;;;2.87;62.31;96151.30;1819011;78;20944;-74
2022/01/27 09:40:12;;;;;;;40.70;22.33;;;;;;;3.13;62.67;96138.80;1816579;78;21575;-74
2022/01/27 09:42:40;;;;;;;36.07;20.40;;;;;;;3.29;62.30;96136.47;1820401;78;20965;-73
2022/01/27 09:45:09;;;;;;;38.40;22.33;;;;;;;3.37;61.36;96138.34;1825468;78;21010;-73
2022/01/27 09:47:40;;;;;;;42.10;23.87;;;;;;;3.44;60.98;96143.27;1818312;78;20958;-75
2022/01/27 09:52:41;;;;;;;60.67;32.00;;;;;;;3.46;61.77;96133.30;1820984;78;20975;-73
2022/01/27 09:55:08;;;;;;;53.07;29.27;;;;;;;3.46;61.82;96138.95;1825795;78;20990;-73
2022/01/27 09:57:35;;;;;;;54.77;32.80;;;;;;;3.50;62.00;96130.74;1828502;78;21483;-72
2022/01/27 10:00:01;;;;;;;52.83;29.23;;;;;;;3.32;61.87;96124.34;1828846;78;21026;-71
2022/01/27 10:02:28;;;;;;;49.20;27.20;;;;;;;3.32;61.90;96125.65;1828711;78;20975;-75
2022/01/27 10:04:58;;;;;;;50.43;28.57;;;;;;;3.29;61.93;96120.38;1828620;78;21049;-76
2022/01/27 10:07:33;;;;;;;50.20;27.83;;;;;;;3.34;61.90;96117.44;1828440;78;21021;-75
2022/01/27 10:10:15;;;;;;;46.93;25.67;;;;;;;3.43;62.01;96128.04;1828940;78;21002;-75
2022/01/27 10:12:50;;;;;;;44.30;24.30;;;;;;;3.54;61.55;96128.22;1828723;78;20974;-75
2022/01/27 10:15:20;;;;;;;47.53;26.60;;;;;;;3.55;61.60;96110.39;1828170;78;21034;-75
2022/01/27 10:18:10;;;;;;;46.40;25.17;;;;;;;3.77;61.57;96105.54;1828393;78;20942;-75
2022/01/27 10:20:50;;;;;;;46.13;26.00;;;;;;;4.11;61.11;96093.45;1828636;78;21022;-75
2022/01/27 10:23:24;;;;;;;48.53;25.87;;;;;;;4.49;60.76;96092.22;1828823;78;21018;-75
2022/01/27 10:25:57;;;;;;;51.37;28.10;;;;;;;4.67;59.11;96079.38;1828816;78;21069;-75
2022/01/27 10:31:10;;;;;;;43.60;24.47;;;;;;;5.08;57.53;96065.00;1829024;78;21473;-75
2022/01/27 10:33:47;;;;;;;39.70;22.27;;;;;;;5.27;57.01;96063.02;1828809;78;21041;-75
2022/01/27 10:36:25;;;;;;;40.47;22.70;;;;;;;5.46;56.01;96060.13;1828727;78;21034;-75
2022/01/27 10:38:59;;;;;;;40.80;25.83;;;;;;;5.62;55.42;96062.02;1809931;78;20950;-74
2022/01/27 10:41:29;;;;;;;35.70;21.33;;;;;;;5.87;55.40;96062.19;1828512;78;20966;-74
2022/01/27 10:44:16;;;;;;;33.50;20.30;;;;;;;5.99;53.75;96058.38;1828516;78;21009;-75
2022/01/27 10:47:10;;;;;;;35.93;21.30;;;;;;;6.03;53.64;96056.23;1828668;78;21049;-74
2022/01/27 10:49:40;;;;;;;35.63;21.37;;;;;;;6.08;54.06;96052.78;1828034;78;21029;-75
2022/01/27 10:52:05;;;;;;;43.03;23.83;;;;;;;6.09;53.85;96055.39;1828800;78;21010;-75
2022/01/27 10:54:37;;;;;;;42.27;24.03;;;;;;;6.04;54.00;96054.48;1826341;78;21452;-75
2022/01/27 10:57:12;;;;;;;42.17;23.33;;;;;;;5.89;54.50;96057.84;1821261;78;21049;-75
2022/01/27 10:59:41;;;;;;;38.37;23.67;;;;;;;5.83;54.76;96059.12;1818916;79;20994;-75
2022/01/27 11:02:13;;;;;;;40.57;24.63;;;;;;;5.68;54.98;96062.49;1818822;79;21468;-74
2022/01/27 11:04:43;;;;;;;44.97;24.53;;;;;;;5.45;55.64;96049.66;1818705;79;21022;-74
2022/01/27 11:07:13;;;;;;;43.00;24.67;;;;;;;5.41;55.90;96056.59;1818973;79;20967;-74
2022/01/27 11:09:43;;;;;;;47.27;28.67;;;;;;;5.38;55.60;96056.13;1819240;79;21022;-74
2022/01/27 11:12:18;;;;;;;45.97;26.07;;;;;;;5.02;56.10;96055.36;1819060;79;21473;-74
2022/01/27 11:14:54;;;;;;;43.33;23.73;;;;;;;4.78;57.22;96065.11;1818988;79;21065;-74
2022/01/27 11:17:20;;;;;;;49.10;25.97;;;;;;;4.68;57.78;96070.66;1817177;79;20986;-74
2022/01/27 11:27:45;;;;;;;52.93;26.97;;;;;;;4.65;58.48;96082.39;1818868;79;21013;-75
2022/01/27 11:30:20;;;;;;;49.67;26.60;;;;;;;4.63;58.62;96078.88;1819143;79;20983;-75
2022/01/27 11:33:13;;;;;;;45.40;24.87;;;;;;;4.67;58.70;96065.00;1818678;79;21015;-75
2022/01/27 11:35:41;;;;;;;49.13;27.30;;;;;;;4.52;58.44;96066.13;1819275;79;21061;-75
2022/01/27 11:38:09;;;;;;;43.83;24.30;;;;;;;4.41;58.69;96059.47;1818726;79;21018;-74
2022/01/27 11:40:42;;;;;;;43.33;25.10;;;;;;;4.24;59.15;96061.84;1818860;79;21002;-74
2022/01/27 11:43:13;;;;;;;50.15;26.30;;;;;;;4.28;59.35;96065.36;1819288;79;20995;-74
2022/01/27 11:45:49;;;;;;;55.87;29.90;;;;;;;4.30;59.39;96062.34;1818313;79;21021;-74
2022/01/27 11:48:23;;;;;;;50.13;27.20;;;;;;;4.19;59.36;96045.67;1819019;79;21045;-74
2022/01/27 11:51:12;;;;;;;47.83;24.40;;;;;;;4.01;60.14;96033.25;1818603;79;21472;-74
2022/01/27 11:53:48;;;;;;;49.30;27.50;;;;;;;4.00;60.25;96034.95;1819184;79;20967;-74
2022/01/27 11:56:31;;;;;;;44.13;24.93;;;;;;;4.09;60.15;96045.97;1822049;78;20998;-75
2022/01/27 11:59:04;;;;;;;36.90;21.03;;;;;;;4.17;59.67;96033.89;1829372;78;20990;-74
2022/01/27 12:01:35;;;;;;;36.35;21.20;;;;;;;3.82;59.71;96030.80;1829235;78;21006;-72
2022/01/27 12:04:08;;;;;;;10.37;6.67;;;;;;;4.17;59.59;96033.02;1829169;78;21018;-72
2022/01/27 12:06:51;;;;;;;9.73;5.23;;;;;;;4.19;55.07;96017.81;1829386;78;20994;-74
2022/01/27 12:09:25;;;;;;;6.92;4.10;;;;;;;4.19;55.27;96024.34;1829241;78;21031;-75
2022/01/27 12:12:07;;;;;;;6.00;3.57;;;;;;;3.99;54.95;96014.07;1829425;78;20954;-75
2022/01/27 12:14:42;;;;;;;6.47;4.03;;;;;;;4.01;54.68;96011.92;1829090;78;21018;-75
2022/01/27 12:17:15;;;;;;;12.93;7.00;;;;;;;4.18;55.17;96013.43;1829514;78;20982;-74
2022/01/27 12:19:53;;;;;;;;;;;;;;;4.02;54.41;95998.44;1832177;78;21022;-74
2022/01/27 12:22:26;;;;;;;36.80;20.83;;;;;;;3.91;57.53;96015.27;1829022;78;20398;-74
2022/01/27 12:24:59;;;;;;;45.50;22.47;;;;;;;3.40;60.45;96019.74;1829386;78;21061;-74
2022/01/27 12:27:29;;;;;;;44.47;24.83;;;;;;;3.38;60.93;96015.36;1828300;78;21017;-74